This is the latest recevied weather packets stored in our database for station/object N2MLB-WX. If no packets are shown the sender has not sent any weather packets the latest 10 day(s).
| Time | Temp. | Humidity | Pressure | Rain* | Wind** | Luminosity | Snow |
|---|---|---|---|---|---|---|---|
| 1777811841 | 9.44° C | 59% | 1010 hPa | 0 mm | - | 47 W/m² | - |
| 1777811541 | 8.33° C | 62% | 1010 hPa | 0 mm | - | 44 W/m² | - |
| 1777811239 | 8.33° C | 64% | 1010 hPa | 0 mm | - | 40 W/m² | - |
| 1777810941 | 8.89° C | 63% | 1010 hPa | 0 mm | - | 38 W/m² | - |
| 1777810643 | 7.78° C | 65% | 1010 hPa | 0 mm | - | 35 W/m² | - |
| 1777810341 | 7.22° C | 67% | 1010 hPa | 0 mm | - | 33 W/m² | - |
| 1777810040 | 7.22° C | 69% | 1010 hPa | 0 mm | - | 30 W/m² | - |
| 1777809739 | 7.22° C | 70% | 1010 hPa | 0 mm | - | 26 W/m² | - |
| 1777809441 | 6.67° C | 70% | 1010 hPa | 0 mm | - | 23 W/m² | - |
| 1777809139 | 6.11° C | 74% | 1010 hPa | 0 mm | - | 20 W/m² | - |
| 1777808842 | 4.44° C | 79% | 1010 hPa | 0 mm | - | 10 W/m² | - |
| 1777808540 | 5° C | 77% | 1010 hPa | 0 mm | - | 12 W/m² | - |
| 1777808243 | 4.44° C | 79% | 1010 hPa | 0 mm | - | 17 W/m² | - |
| 1777807939 | 3.89° C | 82% | 1010 hPa | 0 mm | - | 15 W/m² | - |
| 1777807639 | 3.89° C | 82% | 1010 hPa | 0 mm | - | 13 W/m² | - |
| 1777807342 | 3.33° C | 83% | 1010 hPa | 0 mm | - | 10 W/m² | - |
| 1777807040 | 3.33° C | 83% | 1010 hPa | 0 mm | - | 8 W/m² | - |
| 1777806740 | 3.89° C | 83% | 1010 hPa | 0 mm | - | 7 W/m² | - |
| 1777806445 | 3.89° C | 83% | 1010 hPa | 0 mm | - | 8 W/m² | - |
| 1777806141 | 3.33° C | 84% | 1010 hPa | 0 mm | - | 7 W/m² | - |
| 1777805841 | 2.78° C | 85% | 1009 hPa | 0 mm | - | 9 W/m² | - |
| 1777805539 | 2.78° C | 86% | 1009 hPa | 0 mm | - | 8 W/m² | - |
| 1777805240 | 2.78° C | 87% | 1009 hPa | 0 mm | - | 5 W/m² | - |
| 1777804940 | 2.78° C | 87% | 1009 hPa | 0 mm | - | 4 W/m² | - |
| 1777804639 | 2.22° C | 88% | 1009 hPa | 0 mm | - | 3 W/m² | - |
* Rain latest hour (hover to see other rain measurements)
** Current wind speed in m/s (hover to see current wind gust speed)